createdAt,value
2022-07-29T00:00:28.517Z,12.60
2022-07-29T00:02:30.441Z,12.62
2022-07-29T00:04:32.260Z,12.63
2022-07-29T00:06:34.045Z,12.67
2022-07-29T00:08:35.775Z,12.71
2022-07-29T00:11:15.294Z,12.77
2022-07-29T00:13:17.006Z,12.75
2022-07-29T00:15:18.737Z,12.75
2022-07-29T00:17:20.416Z,12.76
2022-07-29T00:19:22.090Z,12.75
2022-07-29T00:21:25.062Z,12.76
2022-07-29T00:23:26.986Z,12.75
2022-07-29T00:25:28.691Z,12.73
2022-07-29T00:27:30.374Z,12.76
2022-07-29T00:29:33.933Z,12.75
2022-07-29T00:31:36.474Z,12.72
2022-07-29T00:33:38.218Z,12.67
2022-07-29T00:35:45.682Z,12.60
2022-07-29T00:37:47.353Z,12.53
2022-07-29T00:39:49.578Z,12.48
2022-07-29T00:41:51.239Z,12.48
2022-07-29T00:43:52.894Z,12.46
2022-07-29T00:45:54.592Z,12.46
2022-07-29T00:47:56.346Z,12.46
2022-07-29T00:49:58.570Z,12.48
2022-07-29T00:52:01.718Z,12.49
2022-07-29T00:54:04.537Z,12.46
2022-07-29T00:56:06.229Z,12.38
2022-07-29T00:58:08.174Z,12.36
2022-07-29T01:00:16.584Z,12.38
2022-07-29T01:02:18.883Z,12.39
2022-07-29T01:04:24.538Z,12.48
2022-07-29T01:06:26.223Z,12.57
2022-07-29T01:08:28.655Z,12.64
2022-07-29T01:10:30.517Z,12.66
2022-07-29T01:12:34.522Z,12.64
2022-07-29T01:14:37.351Z,12.62
2022-07-29T01:16:47.608Z,12.59
2022-07-29T01:18:51.324Z,12.64
2022-07-29T01:21:21.038Z,12.70
2022-07-29T01:23:38.619Z,12.67
2022-07-29T01:25:42.861Z,12.60
2022-07-29T01:28:10.451Z,12.50
2022-07-29T01:30:15.708Z,12.40
2022-07-29T01:32:28.355Z,12.39
2022-07-29T01:34:58.110Z,12.43
2022-07-29T01:37:05.393Z,12.50
2022-07-29T01:39:15.584Z,12.52
2022-07-29T01:41:18.739Z,12.47
2022-07-29T01:43:22.664Z,12.40
2022-07-29T01:45:40.177Z,12.34
2022-07-29T01:47:48.686Z,12.28
2022-07-29T01:49:52.937Z,12.27
2022-07-29T01:52:05.024Z,12.27
2022-07-29T01:54:15.678Z,12.25
2022-07-29T01:56:19.760Z,12.21
2022-07-29T01:58:21.779Z,12.17
2022-07-29T02:00:23.802Z,12.15
2022-07-29T02:02:25.788Z,12.17
2022-07-29T02:04:30.190Z,12.17
2022-07-29T02:06:33.686Z,12.16
2022-07-29T02:08:36.815Z,12.15
2022-07-29T02:10:40.386Z,12.13
2022-07-29T02:12:43.954Z,12.13
2022-07-29T02:14:54.521Z,12.13
2022-07-29T02:16:57.129Z,12.10
2022-07-29T02:18:59.190Z,12.15
2022-07-29T02:21:01.863Z,12.21
2022-07-29T02:23:03.957Z,12.23
2022-07-29T02:25:05.779Z,12.25
2022-07-29T02:27:08.550Z,12.24
2022-07-29T02:29:13.161Z,12.26
2022-07-29T02:31:15.263Z,12.34
2022-07-29T02:33:16.998Z,12.38
2022-07-29T02:35:19.609Z,12.35
2022-07-29T02:37:22.570Z,12.23
2022-07-29T02:39:25.593Z,12.09
2022-07-29T02:41:30.934Z,11.94
2022-07-29T02:43:33.953Z,11.84
2022-07-29T02:45:35.651Z,11.79
2022-07-29T02:47:48.728Z,11.77
2022-07-29T02:50:02.418Z,11.77
2022-07-29T02:52:14.384Z,11.76
2022-07-29T02:54:33.257Z,11.71
2022-07-29T02:56:38.711Z,11.69
2022-07-29T02:58:46.352Z,11.66
2022-07-29T03:00:48.981Z,11.68
2022-07-29T03:02:55.080Z,11.67
2022-07-29T03:04:57.278Z,11.66
2022-07-29T03:07:01.526Z,11.68
2022-07-29T03:09:05.033Z,11.65
2022-07-29T03:11:10.077Z,11.64
2022-07-29T03:13:13.465Z,11.63
2022-07-29T03:15:15.234Z,11.67
2022-07-29T03:17:17.572Z,11.69
2022-07-29T03:19:21.177Z,11.70
2022-07-29T03:21:23.099Z,11.70
2022-07-29T03:23:25.120Z,11.72
2022-07-29T03:25:28.267Z,11.76
2022-07-29T03:27:30.020Z,11.84
2022-07-29T03:29:33.462Z,11.93
2022-07-29T03:31:36.216Z,11.97
2022-07-29T03:33:37.873Z,11.99
2022-07-29T03:35:39.624Z,12.03
2022-07-29T03:37:41.265Z,12.10
2022-07-29T03:39:44.089Z,12.17
2022-07-29T03:41:48.539Z,12.18
2022-07-29T03:43:51.012Z,12.16
2022-07-29T03:45:54.492Z,12.15
2022-07-29T03:48:01.258Z,12.15
2022-07-29T03:50:07.262Z,12.23
2022-07-29T03:52:12.481Z,12.26
2022-07-29T03:54:14.467Z,12.25
2022-07-29T03:56:17.829Z,12.20
2022-07-29T03:58:19.875Z,12.16
2022-07-29T04:00:23.061Z,12.17
2022-07-29T04:02:30.588Z,12.22
2022-07-29T04:04:36.268Z,12.31
2022-07-29T04:06:45.097Z,12.34
2022-07-29T04:08:47.809Z,12.31
2022-07-29T04:10:49.527Z,12.30
2022-07-29T04:12:51.839Z,12.28
2022-07-29T04:14:53.747Z,12.28
2022-07-29T04:16:55.422Z,12.34
2022-07-29T04:18:58.279Z,12.42
2022-07-29T04:24:17.545Z,12.45
2022-07-29T04:26:20.675Z,12.44
2022-07-29T04:28:22.334Z,12.45
2022-07-29T04:30:24.152Z,12.52
2022-07-29T04:32:26.694Z,12.60
2022-07-29T04:34:53.686Z,12.62
2022-07-29T04:36:56.196Z,12.61
2022-07-29T04:38:58.004Z,12.63
2022-07-29T04:40:59.677Z,12.67
2022-07-29T04:43:03.194Z,12.75
2022-07-29T04:45:07.800Z,12.84
2022-07-29T04:47:09.736Z,12.88
2022-07-29T04:49:11.453Z,12.90
2022-07-29T04:51:13.630Z,12.88
2022-07-29T04:53:15.171Z,12.88
2022-07-29T04:55:16.891Z,12.92
2022-07-29T04:57:18.563Z,13.01
2022-07-29T04:59:20.247Z,13.11
2022-07-29T05:01:22.197Z,13.16
2022-07-29T05:03:23.868Z,13.17
2022-07-29T05:05:25.516Z,13.17
2022-07-29T05:07:27.419Z,13.22
2022-07-29T05:09:29.107Z,13.30
2022-07-29T05:12:40.915Z,13.43
2022-07-29T05:14:42.570Z,13.52
2022-07-29T05:16:44.506Z,13.57
2022-07-29T05:18:46.210Z,13.62
2022-07-29T05:20:47.878Z,13.68
2022-07-29T05:22:51.159Z,13.77
2022-07-29T05:24:53.050Z,13.86
2022-07-29T05:31:11.380Z,14.01
2022-07-29T05:33:36.023Z,14.12
2022-07-29T05:35:36.021Z,14.24
2022-07-29T05:37:37.708Z,14.35
2022-07-29T05:39:48.299Z,14.43
2022-07-29T05:41:52.132Z,14.50
2022-07-29T05:43:53.903Z,14.57
2022-07-29T05:45:55.903Z,14.63
2022-07-29T05:47:58.138Z,14.71
2022-07-29T05:49:59.733Z,14.79
2022-07-29T05:52:01.390Z,14.82
2022-07-29T05:54:03.161Z,14.83
2022-07-29T05:56:06.117Z,14.85
2022-07-29T05:58:07.946Z,14.87
2022-07-29T06:00:10.437Z,14.89
2022-07-29T06:02:12.492Z,14.91
2022-07-29T06:04:14.514Z,14.92
2022-07-29T06:06:16.479Z,14.91
2022-07-29T06:08:18.437Z,14.88
2022-07-29T06:10:20.196Z,14.88
2022-07-29T06:12:25.648Z,14.87
2022-07-29T06:14:30.402Z,14.89
2022-07-29T06:16:32.116Z,14.88
2022-07-29T06:18:34.063Z,14.87
2022-07-29T06:20:36.306Z,14.86
2022-07-29T06:22:38.082Z,14.86
2022-07-29T06:24:44.890Z,14.88
2022-07-29T06:26:46.598Z,14.90
2022-07-29T06:28:48.506Z,14.93
2022-07-29T06:30:51.959Z,14.96
2022-07-29T06:32:53.822Z,15.01
2022-07-29T06:35:17.750Z,15.06
2022-07-29T06:37:17.574Z,15.12
2022-07-29T06:39:19.340Z,15.18
2022-07-29T06:41:21.066Z,15.26
2022-07-29T06:43:22.907Z,15.35
2022-07-29T06:45:25.308Z,15.43
2022-07-29T06:47:30.150Z,15.53
2022-07-29T06:49:31.858Z,15.63
2022-07-29T06:51:38.946Z,15.74
2022-07-29T06:54:00.422Z,15.85
2022-07-29T06:56:04.676Z,15.94
2022-07-29T06:58:06.382Z,16.02
2022-07-29T07:00:08.919Z,16.10
2022-07-29T07:02:10.671Z,16.20
2022-07-29T07:04:13.174Z,16.29
2022-07-29T07:06:15.353Z,16.37
2022-07-29T07:08:17.207Z,16.45
2022-07-29T07:10:18.964Z,16.51
2022-07-29T07:12:20.854Z,16.58
2022-07-29T07:14:22.527Z,16.65
2022-07-29T07:16:24.263Z,16.74
2022-07-29T07:18:25.930Z,16.85
2022-07-29T07:20:27.734Z,16.94
2022-07-29T07:22:29.404Z,17.03
2022-07-29T07:24:31.068Z,17.15
2022-07-29T07:26:33.884Z,17.24
2022-07-29T07:28:35.552Z,17.34
2022-07-29T07:30:37.416Z,17.42
2022-07-29T07:32:39.118Z,17.51
2022-07-29T07:34:40.874Z,17.62
2022-07-29T07:36:42.584Z,17.71
2022-07-29T07:38:44.240Z,17.80
2022-07-29T07:40:47.421Z,17.90
2022-07-29T07:42:49.069Z,18.01
2022-07-29T07:45:12.092Z,18.08
2022-07-29T07:47:13.358Z,18.15
2022-07-29T07:49:15.119Z,18.22
2022-07-29T07:51:16.794Z,18.30
2022-07-29T07:53:18.633Z,18.40
2022-07-29T07:55:20.978Z,18.52
2022-07-29T07:57:22.679Z,18.61
2022-07-29T07:59:24.542Z,18.70
2022-07-29T08:01:27.355Z,18.80
2022-07-29T08:03:29.266Z,18.91
2022-07-29T08:05:30.837Z,18.99
2022-07-29T08:07:32.534Z,19.05
2022-07-29T08:09:35.355Z,19.13
2022-07-29T08:11:37.752Z,19.22
2022-07-29T08:13:39.771Z,19.32
2022-07-29T08:15:42.497Z,19.41
2022-07-29T08:17:44.181Z,19.49
2022-07-29T08:19:46.560Z,19.58
2022-07-29T08:21:48.775Z,19.64
2022-07-29T08:23:59.699Z,19.71
2022-07-29T08:26:02.438Z,19.81
2022-07-29T08:28:04.289Z,19.93
2022-07-29T08:30:06.606Z,20.03
2022-07-29T08:32:08.373Z,20.13
2022-07-29T08:34:10.443Z,20.24
2022-07-29T08:36:14.230Z,20.29
2022-07-29T08:38:15.942Z,20.34
2022-07-29T08:40:17.753Z,20.41
2022-07-29T08:42:21.126Z,20.50
2022-07-29T08:44:30.448Z,20.60
2022-07-29T08:46:32.755Z,20.70
2022-07-29T08:48:34.685Z,20.79
2022-07-29T08:50:36.684Z,20.87
2022-07-29T08:52:40.400Z,20.98
2022-07-29T08:54:44.926Z,21.05
2022-07-29T08:56:50.639Z,21.09
2022-07-29T08:58:53.502Z,21.21
2022-07-29T09:00:56.440Z,21.34
2022-07-29T09:03:00.345Z,21.39
2022-07-29T09:05:03.609Z,21.44
2022-07-29T09:07:06.818Z,21.52
2022-07-29T09:09:08.871Z,21.60
2022-07-29T09:11:12.487Z,21.70
2022-07-29T09:13:14.199Z,21.82
2022-07-29T09:15:15.960Z,21.94
2022-07-29T09:17:20.935Z,22.04
2022-07-29T09:19:34.491Z,22.10
2022-07-29T09:21:59.869Z,22.17
2022-07-29T09:24:13.504Z,22.21
2022-07-29T09:26:15.268Z,22.24
2022-07-29T09:28:20.168Z,22.30
2022-07-29T09:30:30.433Z,22.43
2022-07-29T09:32:34.698Z,22.57
2022-07-29T09:34:36.541Z,22.62
2022-07-29T09:36:41.381Z,22.65
2022-07-29T09:38:42.924Z,22.68
2022-07-29T09:40:44.442Z,22.78
2022-07-29T09:42:46.305Z,22.89
2022-07-29T09:44:49.512Z,22.99
2022-07-29T09:46:55.275Z,23.08
2022-07-29T09:49:10.432Z,23.16
2022-07-29T09:51:21.443Z,23.22
2022-07-29T09:53:30.520Z,23.41
2022-07-29T09:55:32.089Z,23.50
2022-07-29T09:57:33.661Z,23.60
2022-07-29T09:59:35.274Z,23.68
2022-07-29T10:01:37.091Z,23.77
2022-07-29T10:03:51.854Z,23.86
2022-07-29T10:06:09.955Z,23.97
2022-07-29T10:08:13.262Z,24.15
2022-07-29T10:10:21.875Z,24.29
2022-07-29T10:12:23.894Z,24.35
2022-07-29T10:14:26.196Z,24.37
2022-07-29T10:16:33.648Z,24.50
2022-07-29T10:18:35.490Z,24.62
2022-07-29T10:20:37.222Z,24.73
2022-07-29T10:22:54.427Z,24.93
2022-07-29T10:24:56.091Z,25.20
2022-07-29T10:26:58.474Z,25.40
2022-07-29T10:29:00.718Z,25.73
2022-07-29T10:31:06.754Z,26.10
2022-07-29T10:33:26.385Z,26.45
2022-07-29T10:35:46.427Z,26.77
2022-07-29T10:37:56.910Z,26.97
2022-07-29T10:40:36.058Z,27.15
2022-07-29T10:42:37.639Z,27.44
2022-07-29T10:44:41.937Z,27.72
2022-07-29T10:46:43.927Z,28.03
2022-07-29T10:49:04.769Z,28.28
2022-07-29T10:51:07.149Z,28.52
2022-07-29T10:53:08.941Z,28.78
2022-07-29T10:55:33.237Z,29.10
2022-07-29T10:57:53.251Z,29.42
2022-07-29T11:00:06.579Z,29.44
2022-07-29T11:02:42.033Z,29.41
2022-07-29T11:04:45.115Z,29.65
2022-07-29T11:07:03.824Z,29.93
2022-07-29T11:09:25.884Z,30.23
2022-07-29T11:11:37.941Z,30.58
2022-07-29T11:13:48.941Z,30.74
2022-07-29T11:15:55.016Z,30.69
2022-07-29T11:18:03.146Z,30.69
2022-07-29T11:20:24.343Z,30.88
2022-07-29T11:22:33.104Z,31.09
2022-07-29T11:24:35.848Z,31.25
2022-07-29T11:26:37.537Z,31.53
2022-07-29T11:28:56.823Z,31.73
2022-07-29T11:30:58.387Z,31.88
2022-07-29T11:33:00.465Z,32.09
2022-07-29T11:35:37.215Z,32.26
2022-07-29T11:37:45.842Z,32.38
2022-07-29T11:39:54.417Z,32.53
2022-07-29T11:42:16.527Z,32.69
2022-07-29T11:44:18.212Z,32.66
2022-07-29T11:46:38.841Z,32.72
2022-07-29T11:48:44.283Z,32.92
2022-07-29T11:50:48.847Z,33.08
2022-07-29T11:52:51.200Z,33.30
2022-07-29T11:54:58.389Z,33.44
2022-07-29T11:57:15.363Z,33.69
2022-07-29T11:59:17.727Z,33.94
2022-07-29T12:07:35.137Z,34.21
2022-07-29T12:09:40.109Z,34.23
2022-07-29T12:11:47.430Z,34.34
2022-07-29T12:13:49.864Z,34.48
2022-07-29T12:15:54.997Z,34.47
2022-07-29T12:17:56.996Z,34.54
2022-07-29T12:20:04.132Z,34.57
2022-07-29T12:22:05.964Z,34.78
2022-07-29T12:24:09.497Z,35.00
2022-07-29T12:26:25.342Z,35.13
2022-07-29T12:28:27.745Z,35.11
2022-07-29T12:30:40.636Z,35.13
2022-07-29T12:32:43.247Z,35.00
2022-07-29T12:34:44.819Z,35.12
2022-07-29T12:36:46.420Z,35.17
2022-07-29T12:38:47.988Z,35.21
2022-07-29T12:40:51.750Z,35.34
2022-07-29T12:43:10.201Z,35.30
2022-07-29T12:45:12.022Z,35.42
2022-07-29T12:47:13.546Z,35.58
2022-07-29T12:49:24.216Z,35.74
2022-07-29T12:51:32.999Z,35.73
2022-07-29T12:53:34.670Z,35.70
2022-07-29T12:55:41.849Z,35.57
2022-07-29T12:57:50.575Z,35.60
2022-07-29T13:00:11.910Z,35.66
2022-07-29T13:02:25.641Z,35.68
2022-07-29T13:04:30.878Z,35.77
2022-07-29T13:06:36.705Z,35.87
2022-07-29T13:08:38.392Z,35.84
2022-07-29T13:10:40.064Z,35.98
2022-07-29T13:13:00.268Z,36.27
2022-07-29T13:15:02.115Z,36.33
2022-07-29T13:17:07.780Z,36.35
2022-07-29T13:19:12.372Z,36.23
2022-07-29T13:21:14.676Z,35.99
2022-07-29T13:23:16.709Z,35.92
2022-07-29T13:25:25.071Z,35.63
2022-07-29T13:27:27.591Z,35.45
2022-07-29T13:29:31.625Z,35.50
2022-07-29T13:31:33.394Z,35.63
2022-07-29T13:33:34.922Z,35.78
2022-07-29T13:35:40.147Z,36.07
2022-07-29T13:37:41.912Z,36.22
2022-07-29T13:39:43.989Z,36.13
2022-07-29T13:41:54.940Z,36.26
2022-07-29T13:43:58.149Z,36.41
2022-07-29T13:46:00.038Z,36.51
2022-07-29T13:48:01.676Z,36.62
2022-07-29T13:50:04.187Z,36.83
2022-07-29T13:52:08.470Z,37.02
2022-07-29T13:54:10.155Z,37.23
2022-07-29T13:56:11.691Z,37.36
2022-07-29T13:58:13.632Z,37.50
2022-07-29T14:00:16.225Z,37.48
2022-07-29T14:02:18.051Z,37.40
2022-07-29T14:04:19.758Z,37.33
2022-07-29T14:06:25.655Z,37.23
2022-07-29T14:08:41.676Z,37.20
2022-07-29T14:10:43.434Z,37.18
2022-07-29T14:12:45.200Z,37.27
2022-07-29T14:14:48.143Z,37.37
2022-07-29T14:17:19.097Z,37.27
2022-07-29T14:19:21.113Z,36.96
2022-07-29T14:21:22.832Z,36.59
2022-07-29T14:23:25.681Z,36.40
2022-07-29T14:25:31.689Z,36.30
2022-07-29T14:27:38.296Z,36.22
2022-07-29T14:29:40.141Z,36.06
2022-07-29T14:31:41.860Z,35.89
2022-07-29T14:33:43.859Z,35.92
2022-07-29T14:35:48.110Z,36.11
2022-07-29T14:37:50.152Z,36.17
2022-07-29T14:39:51.818Z,36.26
2022-07-29T14:41:54.772Z,36.40
2022-07-29T14:43:57.827Z,36.70
2022-07-29T14:46:03.957Z,37.02
2022-07-29T14:48:07.278Z,37.32
2022-07-29T14:50:09.298Z,37.61
2022-07-29T14:52:11.065Z,37.68
2022-07-29T14:54:15.799Z,37.74
2022-07-29T14:56:35.986Z,37.66
2022-07-29T14:58:38.572Z,37.77
2022-07-29T15:00:53.518Z,37.88
2022-07-29T15:03:03.081Z,38.08
2022-07-29T15:05:05.353Z,38.07
2022-07-29T15:07:07.291Z,38.22
2022-07-29T15:09:09.102Z,38.38
2022-07-29T15:11:10.960Z,38.29
2022-07-29T15:13:12.548Z,38.36
2022-07-29T15:15:14.123Z,38.45
2022-07-29T15:17:15.768Z,38.38
2022-07-29T15:19:17.568Z,38.47
2022-07-29T15:21:19.120Z,38.45
2022-07-29T15:23:20.706Z,38.37
2022-07-29T15:25:22.803Z,38.29
2022-07-29T15:27:24.353Z,38.34
2022-07-29T15:29:25.936Z,38.52
2022-07-29T15:31:27.495Z,38.85
2022-07-29T15:33:29.152Z,39.14
2022-07-29T15:35:31.314Z,39.28
2022-07-29T15:37:48.767Z,39.35
2022-07-29T15:39:51.331Z,39.35
2022-07-29T15:42:50.793Z,39.28
2022-07-29T15:44:52.360Z,39.27
2022-07-29T15:47:09.097Z,39.09
2022-07-29T15:49:11.833Z,39.15
2022-07-29T15:51:13.496Z,39.44
2022-07-29T15:53:15.217Z,39.45
2022-07-29T15:55:16.816Z,39.14
2022-07-29T15:57:18.385Z,39.12
2022-07-29T15:59:22.045Z,39.08
2022-07-29T16:01:25.025Z,38.99
2022-07-29T16:03:26.729Z,38.54
2022-07-29T16:05:29.654Z,37.93
2022-07-29T16:07:31.720Z,37.42
2022-07-29T16:09:34.473Z,37.26
2022-07-29T16:11:36.244Z,37.25
2022-07-29T16:13:37.782Z,37.45
2022-07-29T16:15:39.767Z,37.73
2022-07-29T16:17:41.300Z,38.23
2022-07-29T16:19:43.465Z,38.29
2022-07-29T16:21:45.126Z,38.17
2022-07-29T16:23:46.713Z,38.41
2022-07-29T16:25:59.619Z,38.79
2022-07-29T16:28:02.078Z,39.01
2022-07-29T16:30:04.177Z,39.07
2022-07-29T16:32:06.173Z,39.09
2022-07-29T16:34:07.857Z,39.05
2022-07-29T16:36:09.391Z,38.57
2022-07-29T16:38:14.683Z,38.09
2022-07-29T16:40:16.230Z,38.03
2022-07-29T16:42:36.913Z,38.06
2022-07-29T16:44:40.704Z,37.94
2022-07-29T16:46:44.087Z,37.40
2022-07-29T16:48:46.012Z,36.88
2022-07-29T16:50:47.644Z,36.36
2022-07-29T16:52:49.214Z,35.87
2022-07-29T16:54:50.755Z,35.32
2022-07-29T16:56:52.340Z,34.72
2022-07-29T16:58:53.924Z,34.24
2022-07-29T17:00:55.905Z,33.81
2022-07-29T17:02:57.506Z,33.33
2022-07-29T17:04:59.140Z,33.07
2022-07-29T17:07:01.289Z,32.94
2022-07-29T17:09:06.601Z,33.21
2022-07-29T17:11:08.151Z,33.82
2022-07-29T17:13:09.728Z,34.43
2022-07-29T17:15:12.453Z,35.00
2022-07-29T17:17:16.731Z,35.36
2022-07-29T17:19:22.529Z,35.73
2022-07-29T17:21:24.259Z,36.01
2022-07-29T17:23:26.587Z,36.18
2022-07-29T17:28:25.103Z,36.29
2022-07-29T17:30:26.862Z,36.24
2022-07-29T17:32:28.450Z,36.11
2022-07-29T17:34:30.063Z,35.84
2022-07-29T17:36:53.704Z,35.89
2022-07-29T17:38:59.384Z,35.98
2022-07-29T17:41:00.910Z,35.91
2022-07-29T17:43:02.533Z,35.73
2022-07-29T17:45:04.237Z,35.45
2022-07-29T17:47:15.551Z,35.33
2022-07-29T17:49:18.200Z,35.31
2022-07-29T17:51:19.787Z,35.00
2022-07-29T17:53:21.323Z,34.44
2022-07-29T17:55:22.886Z,33.80
2022-07-29T17:57:24.690Z,33.21
2022-07-29T17:59:26.223Z,32.69
2022-07-29T18:01:28.138Z,32.14
2022-07-29T18:03:30.158Z,31.61
2022-07-29T18:05:31.758Z,31.14
2022-07-29T18:07:33.354Z,30.69
2022-07-29T18:09:34.910Z,30.23
2022-07-29T18:11:36.446Z,29.83
2022-07-29T18:13:40.599Z,29.43
2022-07-29T18:15:42.618Z,28.96
2022-07-29T18:17:56.575Z,28.56
2022-07-29T18:19:59.167Z,28.08
2022-07-29T18:22:05.416Z,27.77
2022-07-29T18:24:07.746Z,27.51
2022-07-29T18:26:09.919Z,27.29
2022-07-29T18:28:11.464Z,27.08
2022-07-29T18:30:15.032Z,26.96
2022-07-29T18:32:16.690Z,26.80
2022-07-29T18:34:19.275Z,26.61
2022-07-29T18:36:20.881Z,26.49
2022-07-29T18:38:22.881Z,26.36
2022-07-29T18:40:25.775Z,26.22
2022-07-29T18:42:27.373Z,26.12
2022-07-29T18:44:28.946Z,25.97
2022-07-29T18:46:31.246Z,25.88
2022-07-29T18:48:34.708Z,25.81
2022-07-29T18:50:36.452Z,25.73
2022-07-29T18:52:38.030Z,25.62
2022-07-29T18:54:39.578Z,25.49
2022-07-29T18:56:41.273Z,25.42
2022-07-29T18:58:42.792Z,25.37
2022-07-29T19:00:44.334Z,25.31
2022-07-29T19:02:46.053Z,25.22
2022-07-29T19:04:49.741Z,25.13
2022-07-29T19:06:51.374Z,25.05
2022-07-29T19:08:53.319Z,24.96
2022-07-29T19:10:54.842Z,24.89
2022-07-29T19:12:59.241Z,24.77
2022-07-29T19:15:20.765Z,24.65
2022-07-29T19:17:22.556Z,24.50
2022-07-29T19:19:24.175Z,24.38
2022-07-29T19:21:25.854Z,24.25
2022-07-29T19:23:27.660Z,24.17
2022-07-29T19:25:29.347Z,24.05
2022-07-29T19:27:31.778Z,24.00
2022-07-29T19:29:35.409Z,23.96
2022-07-29T19:31:37.203Z,23.91
2022-07-29T19:33:39.287Z,23.84
2022-07-29T19:35:41.014Z,23.72
2022-07-29T19:37:42.572Z,23.66
2022-07-29T19:39:44.253Z,23.55
2022-07-29T19:41:46.370Z,23.51
2022-07-29T19:43:51.467Z,23.49
2022-07-29T19:45:54.469Z,23.43
2022-07-29T19:48:01.132Z,23.39
2022-07-29T19:50:03.830Z,23.34
2022-07-29T19:52:05.997Z,23.24
2022-07-29T19:54:09.477Z,23.15
2022-07-29T19:56:11.339Z,23.07
2022-07-29T19:58:13.027Z,23.00
2022-07-29T20:00:16.253Z,22.93
2022-07-29T20:02:18.544Z,22.88
2022-07-29T20:04:20.408Z,22.81
2022-07-29T20:06:23.187Z,22.71
2022-07-29T20:08:24.891Z,22.61
2022-07-29T20:10:26.762Z,22.55
2022-07-29T20:12:29.006Z,22.47
2022-07-29T20:14:31.027Z,22.37
2022-07-29T20:16:32.825Z,22.22
2022-07-29T20:18:35.130Z,22.10
2022-07-29T20:20:36.908Z,22.00
2022-07-29T20:22:38.726Z,21.95
2022-07-29T20:24:40.562Z,21.91
2022-07-29T20:26:43.611Z,21.86
2022-07-29T20:28:49.551Z,21.79
2022-07-29T20:30:53.399Z,21.69
2022-07-29T20:32:55.129Z,21.58
2022-07-29T20:34:56.869Z,21.52
2022-07-29T20:36:58.768Z,21.46
2022-07-29T20:39:01.717Z,21.41
2022-07-29T20:41:03.798Z,21.35
2022-07-29T20:43:05.881Z,21.29
2022-07-29T20:45:08.786Z,21.22
2022-07-29T20:47:10.619Z,21.17
2022-07-29T20:49:12.455Z,21.14
2022-07-29T20:51:14.502Z,21.09
2022-07-29T20:53:20.461Z,21.01
2022-07-29T20:55:22.178Z,20.89
2022-07-29T20:57:38.662Z,20.79
2022-07-29T20:59:45.764Z,20.68
2022-07-29T21:01:47.749Z,20.60
2022-07-29T21:03:49.501Z,20.47
2022-07-29T21:05:51.545Z,20.34
2022-07-29T21:07:57.854Z,20.22
2022-07-29T21:10:00.067Z,20.09
2022-07-29T21:12:02.346Z,19.99
2022-07-29T21:14:04.286Z,19.90
2022-07-29T21:16:14.833Z,19.82
2022-07-29T21:18:36.914Z,19.72
2022-07-29T21:20:38.630Z,19.62
2022-07-29T21:22:40.618Z,19.55
2022-07-29T21:24:42.273Z,19.43
2022-07-29T21:26:50.624Z,19.29
2022-07-29T21:28:56.282Z,19.16
2022-07-29T21:31:01.195Z,19.05
2022-07-29T21:33:03.907Z,18.86
2022-07-29T21:35:18.197Z,18.69
2022-07-29T21:37:28.126Z,18.54
2022-07-29T21:39:29.805Z,18.38
2022-07-29T21:41:31.517Z,18.23
2022-07-29T21:43:33.274Z,18.16
2022-07-29T21:45:35.024Z,18.09
2022-07-29T21:47:36.665Z,17.97
2022-07-29T21:49:38.461Z,17.84
2022-07-29T21:51:40.113Z,17.78
2022-07-29T22:00:28.752Z,17.36
2022-07-29T22:02:30.420Z,17.28
2022-07-29T22:04:32.391Z,17.19
2022-07-29T22:06:34.652Z,17.11
2022-07-29T22:08:36.317Z,17.12
2022-07-29T22:10:38.060Z,17.09
2022-07-29T22:13:11.766Z,17.01
2022-07-29T22:15:13.670Z,16.85
2022-07-29T22:17:16.095Z,16.72
2022-07-29T22:19:17.805Z,16.60
2022-07-29T22:21:21.243Z,16.48
2022-07-29T22:23:22.891Z,16.39
2022-07-29T22:25:24.590Z,16.33
2022-07-29T22:27:26.279Z,16.23
2022-07-29T22:29:28.367Z,16.14
2022-07-29T22:31:30.124Z,16.03
2022-07-29T22:33:31.901Z,15.96
2022-07-29T22:35:33.654Z,15.89
2022-07-29T22:37:35.433Z,15.81
2022-07-29T22:39:37.155Z,15.72
2022-07-29T22:41:39.004Z,15.68
2022-07-29T22:43:40.827Z,15.70
2022-07-29T22:45:42.543Z,15.71
2022-07-29T22:47:48.179Z,15.76
2022-07-29T22:49:50.254Z,15.74
2022-07-29T22:51:51.954Z,15.67
2022-07-29T22:53:53.883Z,15.60
2022-07-29T22:55:55.698Z,15.47
2022-07-29T22:57:57.327Z,15.36
2022-07-29T23:00:01.678Z,15.30
2022-07-29T23:02:03.582Z,15.32
2022-07-29T23:04:06.337Z,15.33
2022-07-29T23:06:08.049Z,15.34
2022-07-29T23:08:09.722Z,15.28
2022-07-29T23:10:11.917Z,15.19
2022-07-29T23:12:13.624Z,15.12
2022-07-29T23:14:15.297Z,15.11
2022-07-29T23:16:26.425Z,15.09
2022-07-29T23:18:28.682Z,15.08
2022-07-29T23:20:30.382Z,15.04
2022-07-29T23:22:35.075Z,15.01
2022-07-29T23:24:36.739Z,14.99
2022-07-29T23:26:38.470Z,14.96
2022-07-29T23:28:40.128Z,14.94
2022-07-29T23:30:42.899Z,15.00
2022-07-29T23:32:44.618Z,15.09
2022-07-29T23:34:46.262Z,15.11
2022-07-29T23:36:47.949Z,15.05
2022-07-29T23:38:49.689Z,14.97
2022-07-29T23:40:51.375Z,14.90
2022-07-29T23:42:53.051Z,14.85
2022-07-29T23:44:54.730Z,14.80
2022-07-29T23:46:56.438Z,14.79
2022-07-29T23:48:58.251Z,14.79
2022-07-29T23:51:01.231Z,14.78
2022-07-29T23:53:02.907Z,14.76
2022-07-29T23:55:36.579Z,14.77
2022-07-29T23:57:27.397Z,14.82
2022-07-29T23:59:28.942Z,14.89
